sensor_id;sensor_type;location;lat;lon;timestamp;temperature;humidity
42663;DHT22;44330;51.360;6.686;2023-05-10T00:01:37;13.80;96.10
42663;DHT22;44330;51.360;6.686;2023-05-10T00:04:03;13.80;96.10
42663;DHT22;44330;51.360;6.686;2023-05-10T00:06:29;13.80;96.10
42663;DHT22;44330;51.360;6.686;2023-05-10T00:08:55;13.80;96.20
42663;DHT22;44330;51.360;6.686;2023-05-10T00:11:20;13.70;96.20
42663;DHT22;44330;51.360;6.686;2023-05-10T00:13:46;13.70;96.10
42663;DHT22;44330;51.360;6.686;2023-05-10T00:16:12;13.60;96.20
42663;DHT22;44330;51.360;6.686;2023-05-10T00:18:38;13.60;96.10
42663;DHT22;44330;51.360;6.686;2023-05-10T00:21:04;13.50;96.10
42663;DHT22;44330;51.360;6.686;2023-05-10T00:23:30;13.50;96.10
42663;DHT22;44330;51.360;6.686;2023-05-10T00:25:56;13.50;96.10
42663;DHT22;44330;51.360;6.686;2023-05-10T00:28:21;13.60;96.10
42663;DHT22;44330;51.360;6.686;2023-05-10T00:30:47;13.50;95.90
42663;DHT22;44330;51.360;6.686;2023-05-10T00:33:13;13.50;95.80
42663;DHT22;44330;51.360;6.686;2023-05-10T00:35:40;13.50;95.90
42663;DHT22;44330;51.360;6.686;2023-05-10T00:38:06;13.40;95.90
42663;DHT22;44330;51.360;6.686;2023-05-10T00:40:31;13.40;95.90
42663;DHT22;44330;51.360;6.686;2023-05-10T00:42:57;13.40;95.90
42663;DHT22;44330;51.360;6.686;2023-05-10T00:45:24;13.30;95.80
42663;DHT22;44330;51.360;6.686;2023-05-10T00:47:51;13.30;95.90
42663;DHT22;44330;51.360;6.686;2023-05-10T00:50:20;13.20;95.90
42663;DHT22;44330;51.360;6.686;2023-05-10T00:52:46;13.30;96.00
42663;DHT22;44330;51.360;6.686;2023-05-10T00:55:13;13.30;96.00
42663;DHT22;44330;51.360;6.686;2023-05-10T00:57:39;13.30;96.10
42663;DHT22;44330;51.360;6.686;2023-05-10T01:00:05;13.30;96.10
42663;DHT22;44330;51.360;6.686;2023-05-10T01:02:31;13.30;96.10
42663;DHT22;44330;51.360;6.686;2023-05-10T01:04:59;13.30;96.20
42663;DHT22;44330;51.360;6.686;2023-05-10T01:07:25;13.30;96.10
42663;DHT22;44330;51.360;6.686;2023-05-10T01:09:50;13.40;96.10
42663;DHT22;44330;51.360;6.686;2023-05-10T01:12:16;13.30;96.10
42663;DHT22;44330;51.360;6.686;2023-05-10T01:14:42;13.30;96.10
42663;DHT22;44330;51.360;6.686;2023-05-10T01:17:09;13.30;96.20
42663;DHT22;44330;51.360;6.686;2023-05-10T01:19:36;13.30;96.30
42663;DHT22;44330;51.360;6.686;2023-05-10T01:25:22;13.30;96.30
42663;DHT22;44330;51.360;6.686;2023-05-10T01:33:41;13.20;96.40
42663;DHT22;44330;51.360;6.686;2023-05-10T01:36:19;13.30;96.40
42663;DHT22;44330;51.360;6.686;2023-05-10T01:41:31;13.30;96.20
42663;DHT22;44330;51.360;6.686;2023-05-10T01:44:04;13.30;95.90
42663;DHT22;44330;51.360;6.686;2023-05-10T01:46:38;13.30;96.00
42663;DHT22;44330;51.360;6.686;2023-05-10T01:49:09;13.30;95.80
42663;DHT22;44330;51.360;6.686;2023-05-10T01:51:44;13.20;95.70
42663;DHT22;44330;51.360;6.686;2023-05-10T01:54:12;13.20;95.80
42663;DHT22;44330;51.360;6.686;2023-05-10T01:56:39;13.20;95.90
42663;DHT22;44330;51.360;6.686;2023-05-10T01:59:13;13.10;95.90
42663;DHT22;44330;51.360;6.686;2023-05-10T02:01:40;13.20;96.00
42663;DHT22;44330;51.360;6.686;2023-05-10T02:04:08;13.10;96.00
42663;DHT22;44330;51.360;6.686;2023-05-10T02:06:36;13.10;96.10
42663;DHT22;44330;51.360;6.686;2023-05-10T02:09:03;13.10;96.20
42663;DHT22;44330;51.360;6.686;2023-05-10T02:11:29;13.10;96.20
42663;DHT22;44330;51.360;6.686;2023-05-10T02:13:57;13.10;96.30
42663;DHT22;44330;51.360;6.686;2023-05-10T02:16:25;13.10;96.30
42663;DHT22;44330;51.360;6.686;2023-05-10T02:18:52;13.10;96.40
42663;DHT22;44330;51.360;6.686;2023-05-10T02:21:19;13.10;96.40
42663;DHT22;44330;51.360;6.686;2023-05-10T02:23:46;13.10;96.50
42663;DHT22;44330;51.360;6.686;2023-05-10T02:26:15;13.10;96.50
42663;DHT22;44330;51.360;6.686;2023-05-10T02:28:42;13.10;96.50
42663;DHT22;44330;51.360;6.686;2023-05-10T02:31:09;13.10;96.50
42663;DHT22;44330;51.360;6.686;2023-05-10T02:33:36;13.20;96.50
42663;DHT22;44330;51.360;6.686;2023-05-10T02:36:02;13.20;96.40
42663;DHT22;44330;51.360;6.686;2023-05-10T02:38:30;13.20;96.30
42663;DHT22;44330;51.360;6.686;2023-05-10T02:40:56;13.20;96.30
42663;DHT22;44330;51.360;6.686;2023-05-10T02:43:23;13.30;96.20
42663;DHT22;44330;51.360;6.686;2023-05-10T02:45:49;13.30;96.10
42663;DHT22;44330;51.360;6.686;2023-05-10T02:48:15;13.30;96.00
42663;DHT22;44330;51.360;6.686;2023-05-10T02:50:44;13.30;96.10
42663;DHT22;44330;51.360;6.686;2023-05-10T02:53:15;13.20;96.10
42663;DHT22;44330;51.360;6.686;2023-05-10T02:55:42;13.20;96.20
42663;DHT22;44330;51.360;6.686;2023-05-10T02:58:08;13.20;96.20
42663;DHT22;44330;51.360;6.686;2023-05-10T03:00:34;13.20;96.30
42663;DHT22;44330;51.360;6.686;2023-05-10T03:03:00;13.20;96.30
42663;DHT22;44330;51.360;6.686;2023-05-10T03:05:26;13.20;96.40
42663;DHT22;44330;51.360;6.686;2023-05-10T03:07:52;13.20;96.40
42663;DHT22;44330;51.360;6.686;2023-05-10T03:10:19;13.30;96.50
42663;DHT22;44330;51.360;6.686;2023-05-10T03:12:56;13.10;96.50
42663;DHT22;44330;51.360;6.686;2023-05-10T03:15:40;13.20;96.60
42663;DHT22;44330;51.360;6.686;2023-05-10T03:18:17;13.20;96.70
42663;DHT22;44330;51.360;6.686;2023-05-10T03:20:49;13.20;96.60
42663;DHT22;44330;51.360;6.686;2023-05-10T03:23:27;13.20;96.60
42663;DHT22;44330;51.360;6.686;2023-05-10T03:25:55;13.20;96.60
42663;DHT22;44330;51.360;6.686;2023-05-10T03:28:25;13.10;96.60
42663;DHT22;44330;51.360;6.686;2023-05-10T03:31:05;13.20;96.60
42663;DHT22;44330;51.360;6.686;2023-05-10T03:33:32;13.20;96.70
42663;DHT22;44330;51.360;6.686;2023-05-10T03:35:57;13.20;96.70
42663;DHT22;44330;51.360;6.686;2023-05-10T03:38:23;13.20;96.70
42663;DHT22;44330;51.360;6.686;2023-05-10T03:40:49;13.20;96.60
42663;DHT22;44330;51.360;6.686;2023-05-10T03:43:15;13.30;96.60
42663;DHT22;44330;51.360;6.686;2023-05-10T03:45:41;13.30;96.60
42663;DHT22;44330;51.360;6.686;2023-05-10T03:48:06;13.30;96.50
42663;DHT22;44330;51.360;6.686;2023-05-10T03:50:32;13.30;96.40
42663;DHT22;44330;51.360;6.686;2023-05-10T03:52:58;13.40;96.40
42663;DHT22;44330;51.360;6.686;2023-05-10T03:55:23;13.50;96.20
42663;DHT22;44330;51.360;6.686;2023-05-10T03:57:49;13.50;96.10
42663;DHT22;44330;51.360;6.686;2023-05-10T04:00:15;13.40;95.90
42663;DHT22;44330;51.360;6.686;2023-05-10T04:02:41;13.40;95.90
42663;DHT22;44330;51.360;6.686;2023-05-10T04:05:07;13.40;96.10
42663;DHT22;44330;51.360;6.686;2023-05-10T04:07:33;13.30;96.20
42663;DHT22;44330;51.360;6.686;2023-05-10T04:09:58;13.40;96.20
42663;DHT22;44330;51.360;6.686;2023-05-10T04:12:24;13.40;96.20
42663;DHT22;44330;51.360;6.686;2023-05-10T04:14:49;13.30;96.30
42663;DHT22;44330;51.360;6.686;2023-05-10T04:17:16;13.30;96.40
42663;DHT22;44330;51.360;6.686;2023-05-10T04:19:42;13.40;96.50
42663;DHT22;44330;51.360;6.686;2023-05-10T04:22:07;13.40;96.40
42663;DHT22;44330;51.360;6.686;2023-05-10T04:24:33;13.30;96.50
42663;DHT22;44330;51.360;6.686;2023-05-10T04:26:59;13.30;96.50
42663;DHT22;44330;51.360;6.686;2023-05-10T04:29:24;13.30;96.60
42663;DHT22;44330;51.360;6.686;2023-05-10T04:31:50;13.30;96.60
42663;DHT22;44330;51.360;6.686;2023-05-10T04:34:16;13.30;96.70
42663;DHT22;44330;51.360;6.686;2023-05-10T04:36:41;13.30;97.00
42663;DHT22;44330;51.360;6.686;2023-05-10T04:39:07;13.30;96.80
42663;DHT22;44330;51.360;6.686;2023-05-10T04:41:32;13.30;96.80
42663;DHT22;44330;51.360;6.686;2023-05-10T04:43:58;13.30;96.90
42663;DHT22;44330;51.360;6.686;2023-05-10T04:46:23;13.30;96.90
42663;DHT22;44330;51.360;6.686;2023-05-10T04:48:49;13.30;96.90
42663;DHT22;44330;51.360;6.686;2023-05-10T04:51:15;13.40;96.90
42663;DHT22;44330;51.360;6.686;2023-05-10T04:53:40;13.40;96.90
42663;DHT22;44330;51.360;6.686;2023-05-10T04:56:06;13.40;96.90
42663;DHT22;44330;51.360;6.686;2023-05-10T04:58:32;13.50;96.90
42663;DHT22;44330;51.360;6.686;2023-05-10T05:01:07;13.50;96.80
42663;DHT22;44330;51.360;6.686;2023-05-10T05:03:33;13.50;96.80
42663;DHT22;44330;51.360;6.686;2023-05-10T05:05:59;13.40;96.80
42663;DHT22;44330;51.360;6.686;2023-05-10T05:08:24;13.50;96.80
42663;DHT22;44330;51.360;6.686;2023-05-10T05:10:50;13.50;96.70
42663;DHT22;44330;51.360;6.686;2023-05-10T05:13:16;13.50;96.70
42663;DHT22;44330;51.360;6.686;2023-05-10T05:15:41;13.50;96.70
42663;DHT22;44330;51.360;6.686;2023-05-10T05:18:07;13.60;96.60
42663;DHT22;44330;51.360;6.686;2023-05-10T05:20:33;13.60;96.70
42663;DHT22;44330;51.360;6.686;2023-05-10T05:22:59;13.70;96.40
42663;DHT22;44330;51.360;6.686;2023-05-10T05:25:25;13.70;96.10
42663;DHT22;44330;51.360;6.686;2023-05-10T05:27:51;13.70;95.90
42663;DHT22;44330;51.360;6.686;2023-05-10T05:30:16;13.70;95.90
42663;DHT22;44330;51.360;6.686;2023-05-10T05:32:42;13.70;95.80
42663;DHT22;44330;51.360;6.686;2023-05-10T05:35:08;13.60;95.80
42663;DHT22;44330;51.360;6.686;2023-05-10T05:37:34;13.70;95.90
42663;DHT22;44330;51.360;6.686;2023-05-10T05:40:00;13.60;96.10
42663;DHT22;44330;51.360;6.686;2023-05-10T05:42:27;13.70;95.90
42663;DHT22;44330;51.360;6.686;2023-05-10T05:44:52;13.70;96.00
42663;DHT22;44330;51.360;6.686;2023-05-10T05:47:21;13.70;96.00
42663;DHT22;44330;51.360;6.686;2023-05-10T05:49:47;13.70;96.00
42663;DHT22;44330;51.360;6.686;2023-05-10T05:52:12;13.70;96.00
42663;DHT22;44330;51.360;6.686;2023-05-10T05:54:41;13.70;96.00
42663;DHT22;44330;51.360;6.686;2023-05-10T05:57:07;13.70;96.00
42663;DHT22;44330;51.360;6.686;2023-05-10T05:59:32;13.70;96.00
42663;DHT22;44330;51.360;6.686;2023-05-10T06:02:00;13.70;95.80
42663;DHT22;44330;51.360;6.686;2023-05-10T06:04:26;13.80;95.50
42663;DHT22;44330;51.360;6.686;2023-05-10T06:07:02;13.80;95.20
42663;DHT22;44330;51.360;6.686;2023-05-10T06:09:28;13.70;95.10
42663;DHT22;44330;51.360;6.686;2023-05-10T06:11:56;13.70;95.10
42663;DHT22;44330;51.360;6.686;2023-05-10T06:14:25;13.70;95.20
42663;DHT22;44330;51.360;6.686;2023-05-10T06:16:55;13.70;95.10
42663;DHT22;44330;51.360;6.686;2023-05-10T06:19:30;13.70;94.90
42663;DHT22;44330;51.360;6.686;2023-05-10T06:21:56;13.80;94.90
42663;DHT22;44330;51.360;6.686;2023-05-10T06:24:24;13.80;94.80
42663;DHT22;44330;51.360;6.686;2023-05-10T06:26:58;13.70;94.60
42663;DHT22;44330;51.360;6.686;2023-05-10T06:29:28;13.80;94.70
42663;DHT22;44330;51.360;6.686;2023-05-10T06:31:54;13.80;94.80
42663;DHT22;44330;51.360;6.686;2023-05-10T06:38:15;13.90;95.20
42663;DHT22;44330;51.360;6.686;2023-05-10T06:40:46;13.90;95.00
42663;DHT22;44330;51.360;6.686;2023-05-10T06:43:22;14.00;94.40
42663;DHT22;44330;51.360;6.686;2023-05-10T06:45:54;14.00;94.40
42663;DHT22;44330;51.360;6.686;2023-05-10T06:48:27;14.00;94.50
42663;DHT22;44330;51.360;6.686;2023-05-10T06:50:58;14.00;94.60
42663;DHT22;44330;51.360;6.686;2023-05-10T06:53:23;14.00;94.70
42663;DHT22;44330;51.360;6.686;2023-05-10T06:55:49;14.00;94.40
42663;DHT22;44330;51.360;6.686;2023-05-10T06:58:15;14.10;94.30
42663;DHT22;44330;51.360;6.686;2023-05-10T07:00:41;14.00;94.00
42663;DHT22;44330;51.360;6.686;2023-05-10T07:03:09;14.00;94.10
42663;DHT22;44330;51.360;6.686;2023-05-10T07:05:49;14.00;93.70
42663;DHT22;44330;51.360;6.686;2023-05-10T07:08:25;14.00;93.90
42663;DHT22;44330;51.360;6.686;2023-05-10T07:10:52;14.00;93.90
42663;DHT22;44330;51.360;6.686;2023-05-10T07:13:18;14.10;94.20
42663;DHT22;44330;51.360;6.686;2023-05-10T07:15:44;14.00;94.50
42663;DHT22;44330;51.360;6.686;2023-05-10T07:18:09;14.10;94.50
42663;DHT22;44330;51.360;6.686;2023-05-10T07:20:35;14.00;94.50
42663;DHT22;44330;51.360;6.686;2023-05-10T07:23:01;14.10;94.70
42663;DHT22;44330;51.360;6.686;2023-05-10T07:25:26;14.00;94.90
42663;DHT22;44330;51.360;6.686;2023-05-10T07:27:52;14.10;95.40
42663;DHT22;44330;51.360;6.686;2023-05-10T07:30:18;14.10;95.70
42663;DHT22;44330;51.360;6.686;2023-05-10T07:32:44;14.20;95.80
42663;DHT22;44330;51.360;6.686;2023-05-10T07:35:10;14.30;95.50
42663;DHT22;44330;51.360;6.686;2023-05-10T07:40:54;14.60;94.80
42663;DHT22;44330;51.360;6.686;2023-05-10T07:43:44;14.70;94.80
42663;DHT22;44330;51.360;6.686;2023-05-10T07:46:10;15.00;95.20
42663;DHT22;44330;51.360;6.686;2023-05-10T07:48:37;15.30;94.20
42663;DHT22;44330;51.360;6.686;2023-05-10T07:51:02;15.30;91.20
42663;DHT22;44330;51.360;6.686;2023-05-10T07:53:28;15.40;91.20
42663;DHT22;44330;51.360;6.686;2023-05-10T07:55:56;15.40;90.70
42663;DHT22;44330;51.360;6.686;2023-05-10T07:58:26;15.50;90.10
42663;DHT22;44330;51.360;6.686;2023-05-10T08:00:52;15.60;87.70
42663;DHT22;44330;51.360;6.686;2023-05-10T08:03:18;15.60;88.80
42663;DHT22;44330;51.360;6.686;2023-05-10T08:05:43;15.60;87.20
42663;DHT22;44330;51.360;6.686;2023-05-10T08:08:09;15.60;89.10
42663;DHT22;44330;51.360;6.686;2023-05-10T08:10:34;15.80;86.80
42663;DHT22;44330;51.360;6.686;2023-05-10T08:13:03;15.70;84.20
42663;DHT22;44330;51.360;6.686;2023-05-10T08:15:28;15.70;84.40
42663;DHT22;44330;51.360;6.686;2023-05-10T08:17:54;15.80;84.40
42663;DHT22;44330;51.360;6.686;2023-05-10T08:20:20;15.80;80.70
42663;DHT22;44330;51.360;6.686;2023-05-10T08:22:46;15.80;79.70
42663;DHT22;44330;51.360;6.686;2023-05-10T08:25:12;15.80;81.90
42663;DHT22;44330;51.360;6.686;2023-05-10T08:27:37;15.90;82.00
42663;DHT22;44330;51.360;6.686;2023-05-10T08:30:03;15.80;79.50
42663;DHT22;44330;51.360;6.686;2023-05-10T08:32:29;15.70;78.40
42663;DHT22;44330;51.360;6.686;2023-05-10T08:34:55;15.70;74.30
42663;DHT22;44330;51.360;6.686;2023-05-10T08:37:22;15.60;73.10
42663;DHT22;44330;51.360;6.686;2023-05-10T08:39:57;15.50;76.50
42663;DHT22;44330;51.360;6.686;2023-05-10T08:42:26;15.60;76.00
42663;DHT22;44330;51.360;6.686;2023-05-10T08:45:04;15.60;76.30
42663;DHT22;44330;51.360;6.686;2023-05-10T08:47:30;15.60;75.00
42663;DHT22;44330;51.360;6.686;2023-05-10T08:49:57;15.60;70.50
42663;DHT22;44330;51.360;6.686;2023-05-10T08:52:26;15.60;72.30
42663;DHT22;44330;51.360;6.686;2023-05-10T08:54:53;15.50;72.30
42663;DHT22;44330;51.360;6.686;2023-05-10T08:57:19;15.50;73.50
42663;DHT22;44330;51.360;6.686;2023-05-10T08:59:47;15.60;70.20
42663;DHT22;44330;51.360;6.686;2023-05-10T09:02:13;15.80;70.20
42663;DHT22;44330;51.360;6.686;2023-05-10T09:04:39;15.70;70.10
42663;DHT22;44330;51.360;6.686;2023-05-10T09:07:11;15.70;73.70
42663;DHT22;44330;51.360;6.686;2023-05-10T09:09:37;15.70;72.70
42663;DHT22;44330;51.360;6.686;2023-05-10T09:12:03;15.70;74.30
42663;DHT22;44330;51.360;6.686;2023-05-10T09:14:29;15.70;71.80
42663;DHT22;44330;51.360;6.686;2023-05-10T09:16:58;15.70;72.50
42663;DHT22;44330;51.360;6.686;2023-05-10T09:19:24;15.60;65.70
42663;DHT22;44330;51.360;6.686;2023-05-10T09:21:50;15.70;69.00
42663;DHT22;44330;51.360;6.686;2023-05-10T09:24:16;15.70;67.50
42663;DHT22;44330;51.360;6.686;2023-05-10T09:27:03;15.70;65.50
42663;DHT22;44330;51.360;6.686;2023-05-10T09:29:44;15.70;70.20
42663;DHT22;44330;51.360;6.686;2023-05-10T09:32:17;15.70;64.00
42663;DHT22;44330;51.360;6.686;2023-05-10T09:34:43;15.80;67.00
42663;DHT22;44330;51.360;6.686;2023-05-10T09:37:08;15.80;65.30
42663;DHT22;44330;51.360;6.686;2023-05-10T09:39:36;15.80;65.20
42663;DHT22;44330;51.360;6.686;2023-05-10T09:42:07;16.00;63.40
42663;DHT22;44330;51.360;6.686;2023-05-10T09:44:33;16.10;66.00
42663;DHT22;44330;51.360;6.686;2023-05-10T09:47:00;16.00;63.20
42663;DHT22;44330;51.360;6.686;2023-05-10T09:49:26;16.20;60.60
42663;DHT22;44330;51.360;6.686;2023-05-10T09:52:03;16.00;64.50
42663;DHT22;44330;51.360;6.686;2023-05-10T09:54:45;16.20;64.90
42663;DHT22;44330;51.360;6.686;2023-05-10T09:57:21;16.20;61.10
42663;DHT22;44330;51.360;6.686;2023-05-10T09:59:47;16.20;63.10
42663;DHT22;44330;51.360;6.686;2023-05-10T10:02:13;16.10;58.30
42663;DHT22;44330;51.360;6.686;2023-05-10T10:04:42;16.00;62.20
42663;DHT22;44330;51.360;6.686;2023-05-10T10:07:08;15.90;62.90
42663;DHT22;44330;51.360;6.686;2023-05-10T10:09:35;15.80;64.80
42663;DHT22;44330;51.360;6.686;2023-05-10T10:12:02;15.70;65.00
42663;DHT22;44330;51.360;6.686;2023-05-10T10:14:29;15.70;71.50
42663;DHT22;44330;51.360;6.686;2023-05-10T10:17:00;15.80;71.30
42663;DHT22;44330;51.360;6.686;2023-05-10T10:19:26;15.70;70.60
42663;DHT22;44330;51.360;6.686;2023-05-10T10:21:52;15.70;63.00
42663;DHT22;44330;51.360;6.686;2023-05-10T10:24:17;15.70;65.60
42663;DHT22;44330;51.360;6.686;2023-05-10T10:26:44;15.70;68.90
42663;DHT22;44330;51.360;6.686;2023-05-10T10:31:55;15.90;65.40
42663;DHT22;44330;51.360;6.686;2023-05-10T10:34:28;16.00;61.10
42663;DHT22;44330;51.360;6.686;2023-05-10T10:36:55;16.00;59.80
42663;DHT22;44330;51.360;6.686;2023-05-10T10:39:22;16.00;60.30
42663;DHT22;44330;51.360;6.686;2023-05-10T10:41:53;16.00;58.20
42663;DHT22;44330;51.360;6.686;2023-05-10T10:46:59;15.90;54.20
42663;DHT22;44330;51.360;6.686;2023-05-10T10:49:31;15.80;63.80
42663;DHT22;44330;51.360;6.686;2023-05-10T10:52:21;15.90;59.80
42663;DHT22;44330;51.360;6.686;2023-05-10T10:54:52;15.80;55.80
42663;DHT22;44330;51.360;6.686;2023-05-10T10:57:19;15.90;58.60
42663;DHT22;44330;51.360;6.686;2023-05-10T10:59:45;15.90;63.10
42663;DHT22;44330;51.360;6.686;2023-05-10T11:02:34;15.90;59.40
42663;DHT22;44330;51.360;6.686;2023-05-10T11:07:57;16.00;65.50
42663;DHT22;44330;51.360;6.686;2023-05-10T11:10:24;16.20;68.60
42663;DHT22;44330;51.360;6.686;2023-05-10T11:15:17;16.40;64.40
42663;DHT22;44330;51.360;6.686;2023-05-10T11:17:43;16.60;55.60
42663;DHT22;44330;51.360;6.686;2023-05-10T11:20:14;16.70;53.80
42663;DHT22;44330;51.360;6.686;2023-05-10T11:22:53;16.80;54.50
42663;DHT22;44330;51.360;6.686;2023-05-10T11:25:19;16.90;56.50
42663;DHT22;44330;51.360;6.686;2023-05-10T11:27:47;17.00;47.30
42663;DHT22;44330;51.360;6.686;2023-05-10T11:30:14;16.90;35.40
42663;DHT22;44330;51.360;6.686;2023-05-10T11:32:40;16.90;41.90
42663;DHT22;44330;51.360;6.686;2023-05-10T11:35:10;16.70;37.40
42663;DHT22;44330;51.360;6.686;2023-05-10T11:37:36;16.60;49.70
42663;DHT22;44330;51.360;6.686;2023-05-10T11:40:40;16.60;48.50
42663;DHT22;44330;51.360;6.686;2023-05-10T11:43:06;16.60;53.40
42663;DHT22;44330;51.360;6.686;2023-05-10T11:45:34;16.60;49.00
42663;DHT22;44330;51.360;6.686;2023-05-10T11:48:00;16.60;38.50
42663;DHT22;44330;51.360;6.686;2023-05-10T11:50:26;16.50;50.00
42663;DHT22;44330;51.360;6.686;2023-05-10T11:52:56;16.50;42.90
42663;DHT22;44330;51.360;6.686;2023-05-10T11:55:22;16.60;40.60
42663;DHT22;44330;51.360;6.686;2023-05-10T11:57:52;16.60;43.90
42663;DHT22;44330;51.360;6.686;2023-05-10T12:00:18;16.60;50.90
42663;DHT22;44330;51.360;6.686;2023-05-10T12:02:44;16.50;55.70
42663;DHT22;44330;51.360;6.686;2023-05-10T12:05:10;16.60;49.20
42663;DHT22;44330;51.360;6.686;2023-05-10T12:07:36;16.60;43.80
42663;DHT22;44330;51.360;6.686;2023-05-10T12:12:52;16.90;47.90
42663;DHT22;44330;51.360;6.686;2023-05-10T12:15:24;17.00;46.40
42663;DHT22;44330;51.360;6.686;2023-05-10T12:17:50;17.20;44.60
42663;DHT22;44330;51.360;6.686;2023-05-10T12:20:21;17.40;31.60
42663;DHT22;44330;51.360;6.686;2023-05-10T12:25:14;17.50;48.10
42663;DHT22;44330;51.360;6.686;2023-05-10T12:27:40;17.70;48.40
42663;DHT22;44330;51.360;6.686;2023-05-10T12:30:06;17.90;39.90
42663;DHT22;44330;51.360;6.686;2023-05-10T12:32:43;18.10;23.10
42663;DHT22;44330;51.360;6.686;2023-05-10T12:35:09;18.30;26.50
42663;DHT22;44330;51.360;6.686;2023-05-10T12:37:35;18.30;11.20
42663;DHT22;44330;51.360;6.686;2023-05-10T12:40:06;18.50;20.60
42663;DHT22;44330;51.360;6.686;2023-05-10T12:42:32;18.80;8.80
42663;DHT22;44330;51.360;6.686;2023-05-10T12:44:57;18.90;1.00
42663;DHT22;44330;51.360;6.686;2023-05-10T12:47:23;19.00;1.00
42663;DHT22;44330;51.360;6.686;2023-05-10T12:49:48;18.90;1.00
42663;DHT22;44330;51.360;6.686;2023-05-10T12:52:14;19.00;1.00
42663;DHT22;44330;51.360;6.686;2023-05-10T12:54:39;18.90;1.00
42663;DHT22;44330;51.360;6.686;2023-05-10T12:57:05;18.90;1.00
42663;DHT22;44330;51.360;6.686;2023-05-10T12:59:31;19.00;1.00
42663;DHT22;44330;51.360;6.686;2023-05-10T13:01:57;19.30;1.00
42663;DHT22;44330;51.360;6.686;2023-05-10T13:04:23;19.30;1.00
42663;DHT22;44330;51.360;6.686;2023-05-10T13:06:48;19.30;1.00
42663;DHT22;44330;51.360;6.686;2023-05-10T13:09:14;19.30;1.00
42663;DHT22;44330;51.360;6.686;2023-05-10T13:11:40;19.40;1.00
42663;DHT22;44330;51.360;6.686;2023-05-10T13:14:06;19.50;1.00
42663;DHT22;44330;51.360;6.686;2023-05-10T13:16:32;19.50;99.90
42663;DHT22;44330;51.360;6.686;2023-05-10T13:18:58;19.50;1.00
42663;DHT22;44330;51.360;6.686;2023-05-10T13:21:24;19.50;1.00
42663;DHT22;44330;51.360;6.686;2023-05-10T13:23:50;19.50;1.00
42663;DHT22;44330;51.360;6.686;2023-05-10T13:26:16;19.60;1.00
42663;DHT22;44330;51.360;6.686;2023-05-10T13:28:41;19.70;1.00
42663;DHT22;44330;51.360;6.686;2023-05-10T13:31:07;19.60;1.00
42663;DHT22;44330;51.360;6.686;2023-05-10T13:33:33;19.70;1.00
42663;DHT22;44330;51.360;6.686;2023-05-10T13:35:58;19.70;1.00
42663;DHT22;44330;51.360;6.686;2023-05-10T13:38:24;19.70;1.00
42663;DHT22;44330;51.360;6.686;2023-05-10T13:40:50;19.80;99.90
42663;DHT22;44330;51.360;6.686;2023-05-10T13:43:18;19.90;99.90
42663;DHT22;44330;51.360;6.686;2023-05-10T13:45:44;19.90;1.00
42663;DHT22;44330;51.360;6.686;2023-05-10T13:48:22;20.10;99.90
42663;DHT22;44330;51.360;6.686;2023-05-10T13:50:59;20.20;1.00
42663;DHT22;44330;51.360;6.686;2023-05-10T13:53:25;20.50;99.90
42663;DHT22;44330;51.360;6.686;2023-05-10T13:55:51;20.70;85.30
42663;DHT22;44330;51.360;6.686;2023-05-10T13:58:16;21.30;99.90
42663;DHT22;44330;51.360;6.686;2023-05-10T14:00:42;21.60;98.00
42663;DHT22;44330;51.360;6.686;2023-05-10T14:03:07;21.90;99.90
42663;DHT22;44330;51.360;6.686;2023-05-10T14:05:36;21.80;99.90
42663;DHT22;44330;51.360;6.686;2023-05-10T14:08:01;21.50;99.90
42663;DHT22;44330;51.360;6.686;2023-05-10T14:10:28;21.30;99.90
42663;DHT22;44330;51.360;6.686;2023-05-10T14:12:53;21.10;99.90
42663;DHT22;44330;51.360;6.686;2023-05-10T14:15:19;21.10;99.90
42663;DHT22;44330;51.360;6.686;2023-05-10T14:17:45;20.70;99.90
42663;DHT22;44330;51.360;6.686;2023-05-10T14:20:11;20.50;99.90
42663;DHT22;44330;51.360;6.686;2023-05-10T14:22:37;20.20;99.90
42663;DHT22;44330;51.360;6.686;2023-05-10T14:25:03;20.00;99.90
42663;DHT22;44330;51.360;6.686;2023-05-10T14:27:28;19.90;1.00
42663;DHT22;44330;51.360;6.686;2023-05-10T14:29:54;19.90;16.00
42663;DHT22;44330;51.360;6.686;2023-05-10T14:32:20;20.00;1.00
42663;DHT22;44330;51.360;6.686;2023-05-10T14:34:46;19.80;16.50
42663;DHT22;44330;51.360;6.686;2023-05-10T14:37:13;19.90;99.90
42663;DHT22;44330;51.360;6.686;2023-05-10T14:39:40;20.00;1.00
42663;DHT22;44330;51.360;6.686;2023-05-10T14:42:06;20.00;99.90
42663;DHT22;44330;51.360;6.686;2023-05-10T14:44:31;20.00;77.10
42663;DHT22;44330;51.360;6.686;2023-05-10T14:46:57;20.10;99.90
42663;DHT22;44330;51.360;6.686;2023-05-10T14:49:22;20.10;99.90
42663;DHT22;44330;51.360;6.686;2023-05-10T14:51:50;20.20;99.90
42663;DHT22;44330;51.360;6.686;2023-05-10T14:54:16;20.30;99.00
42663;DHT22;44330;51.360;6.686;2023-05-10T14:56:41;20.00;96.30
42663;DHT22;44330;51.360;6.686;2023-05-10T14:59:07;20.00;99.90
42663;DHT22;44330;51.360;6.686;2023-05-10T15:01:33;20.00;99.90
42663;DHT22;44330;51.360;6.686;2023-05-10T15:04:03;20.10;99.90
42663;DHT22;44330;51.360;6.686;2023-05-10T15:06:32;20.10;99.90
42663;DHT22;44330;51.360;6.686;2023-05-10T15:08:58;20.40;99.90
42663;DHT22;44330;51.360;6.686;2023-05-10T15:11:23;20.60;53.70
42663;DHT22;44330;51.360;6.686;2023-05-10T15:13:49;20.70;99.90
42663;DHT22;44330;51.360;6.686;2023-05-10T15:16:17;20.60;1.00
42663;DHT22;44330;51.360;6.686;2023-05-10T15:18:45;20.40;26.00
42663;DHT22;44330;51.360;6.686;2023-05-10T15:21:15;20.20;99.90
42663;DHT22;44330;51.360;6.686;2023-05-10T15:23:41;20.00;99.90
42663;DHT22;44330;51.360;6.686;2023-05-10T15:26:07;19.70;99.90
42663;DHT22;44330;51.360;6.686;2023-05-10T15:28:33;19.40;99.90
42663;DHT22;44330;51.360;6.686;2023-05-10T15:30:58;19.20;1.00
42663;DHT22;44330;51.360;6.686;2023-05-10T15:33:24;19.10;99.90
42663;DHT22;44330;51.360;6.686;2023-05-10T15:35:50;18.80;99.90
42663;DHT22;44330;51.360;6.686;2023-05-10T15:38:15;18.50;99.90
42663;DHT22;44330;51.360;6.686;2023-05-10T15:40:41;18.30;36.10
42663;DHT22;44330;51.360;6.686;2023-05-10T15:43:06;18.20;15.00
42663;DHT22;44330;51.360;6.686;2023-05-10T15:45:32;17.20;16.50
42663;DHT22;44330;51.360;6.686;2023-05-10T15:48:01;16.60;55.60
42663;DHT22;44330;51.360;6.686;2023-05-10T15:50:26;16.20;69.40
42663;DHT22;44330;51.360;6.686;2023-05-10T15:52:52;15.80;77.30
42663;DHT22;44330;51.360;6.686;2023-05-10T15:55:18;15.60;80.90
42663;DHT22;44330;51.360;6.686;2023-05-10T15:57:44;15.40;83.50
42663;DHT22;44330;51.360;6.686;2023-05-10T16:12:05;14.90;91.20
42663;DHT22;44330;51.360;6.686;2023-05-10T16:18:21;15.00;92.70
42663;DHT22;44330;51.360;6.686;2023-05-10T16:20:49;15.00;92.00
42663;DHT22;44330;51.360;6.686;2023-05-10T16:25:50;14.90;92.50
42663;DHT22;44330;51.360;6.686;2023-05-10T16:28:20;14.90;91.40